createdAt,value
2018-11-26T00:00:17.477Z,101111.33
2018-11-26T00:02:45.555Z,101106.16
2018-11-26T00:05:13.620Z,101113.00
2018-11-26T00:07:41.688Z,101111.97
2018-11-26T00:10:21.112Z,101109.31
2018-11-26T00:12:49.176Z,101113.27
2018-11-26T00:15:17.232Z,101107.07
2018-11-26T00:17:45.354Z,101114.09
2018-11-26T00:20:13.396Z,101111.22
2018-11-26T00:22:41.448Z,101114.27
2018-11-26T00:25:09.196Z,101113.80
2018-11-26T00:27:37.309Z,101117.73
2018-11-26T00:30:06.596Z,101129.52
2018-11-26T00:32:34.673Z,101124.87
2018-11-26T00:35:02.768Z,101126.16
2018-11-26T00:37:30.832Z,101125.51
2018-11-26T00:39:58.920Z,101125.20
2018-11-26T00:42:26.984Z,101120.33
2018-11-26T00:44:55.078Z,101118.77
2018-11-26T00:47:23.137Z,101122.32
2018-11-26T00:49:51.192Z,101118.80
2018-11-26T00:52:19.292Z,101112.50
2018-11-26T00:54:47.363Z,101110.36
2018-11-26T00:57:15.429Z,101104.14
2018-11-26T00:59:43.537Z,101105.12
2018-11-26T01:02:19.954Z,101101.70
2018-11-26T01:04:48.066Z,101100.52
2018-11-26T01:07:16.197Z,101106.23
2018-11-26T01:09:44.278Z,101105.11
2018-11-26T01:12:12.396Z,101105.16
2018-11-26T01:14:40.489Z,101103.91
2018-11-26T01:17:08.582Z,101101.41
2018-11-26T01:19:36.697Z,101097.61
2018-11-26T01:22:04.810Z,101099.73
2018-11-26T01:24:32.925Z,101092.58
2018-11-26T01:27:01.021Z,101103.80
2018-11-26T01:29:29.125Z,101098.28
2018-11-26T01:31:57.195Z,101102.57
2018-11-26T01:34:25.302Z,101102.28
2018-11-26T01:36:53.419Z,101103.59
2018-11-26T01:39:21.494Z,101106.18
2018-11-26T01:41:49.597Z,101092.80
2018-11-26T01:44:17.689Z,101099.27
2018-11-26T01:46:45.815Z,101098.88
2018-11-26T01:49:13.934Z,101098.58
2018-11-26T01:51:42.058Z,101101.20
2018-11-26T01:54:10.153Z,101099.18
2018-11-26T01:56:38.277Z,101098.30
2018-11-26T01:59:06.419Z,101098.10
2018-11-26T02:01:34.545Z,101098.52
2018-11-26T02:04:02.689Z,101099.48
2018-11-26T02:06:30.819Z,101102.07
2018-11-26T02:08:58.913Z,101095.58
2018-11-26T02:11:27.022Z,101092.55
2018-11-26T02:13:55.143Z,101092.96
2018-11-26T02:16:23.250Z,101085.22
2018-11-26T02:18:51.487Z,101088.28
2018-11-26T02:21:19.566Z,101086.14
2018-11-26T02:23:47.665Z,101083.82
2018-11-26T02:26:15.766Z,101089.83
2018-11-26T02:28:43.892Z,101086.39
2018-11-26T02:31:12.006Z,101089.05
2018-11-26T02:33:40.691Z,101087.84
2018-11-26T02:36:08.787Z,101086.59
2018-11-26T02:38:36.917Z,101087.84
2018-11-26T02:41:05.427Z,101092.97
2018-11-26T02:43:33.550Z,101091.26
2018-11-26T02:46:01.654Z,101092.09
2018-11-26T02:48:29.773Z,101090.82
2018-11-26T02:50:57.976Z,101093.31
2018-11-26T02:53:26.098Z,101097.95
2018-11-26T02:55:54.213Z,101093.20
2018-11-26T02:58:22.339Z,101092.80
2018-11-26T03:00:50.477Z,101093.28
2018-11-26T03:03:18.585Z,101097.87
2018-11-26T03:05:46.697Z,101091.08
2018-11-26T03:08:14.818Z,101087.23
2018-11-26T03:10:42.953Z,101099.51
2018-11-26T03:13:11.074Z,101093.02
2018-11-26T03:15:39.214Z,101092.92
2018-11-26T03:18:07.305Z,101094.63
2018-11-26T03:20:35.378Z,101088.16
2018-11-26T03:23:03.503Z,101093.76
2018-11-26T03:25:31.610Z,101085.38
2018-11-26T03:27:59.725Z,101090.92
2018-11-26T03:30:27.866Z,101088.82
2018-11-26T03:32:55.981Z,101088.16
2018-11-26T03:35:24.086Z,101087.70
2018-11-26T03:37:52.193Z,101082.08
2018-11-26T03:40:20.282Z,101076.39
2018-11-26T03:42:48.380Z,101078.16
2018-11-26T03:45:17.564Z,101084.13
2018-11-26T03:47:45.695Z,101090.13
2018-11-26T03:50:14.379Z,101093.36
2018-11-26T03:52:44.063Z,101093.39
2018-11-26T03:55:12.366Z,101083.36
2018-11-26T03:57:40.449Z,101088.06
2018-11-26T04:00:11.970Z,101097.09
2018-11-26T04:02:40.063Z,101102.27
2018-11-26T04:05:09.053Z,101101.06
2018-11-26T04:07:37.157Z,101107.54
2018-11-26T04:10:07.254Z,101109.36
2018-11-26T04:12:35.391Z,101113.77
2018-11-26T04:15:03.485Z,101112.59
2018-11-26T04:17:31.620Z,101113.81
2018-11-26T04:19:59.719Z,101114.67
2018-11-26T04:22:27.831Z,101103.97
2018-11-26T04:24:55.925Z,101103.59
2018-11-26T04:27:24.059Z,101101.18
2018-11-26T04:29:52.162Z,101096.97
2018-11-26T04:32:20.279Z,101099.66
2018-11-26T04:34:48.408Z,101103.11
2018-11-26T04:37:16.563Z,101099.79
2018-11-26T04:39:44.666Z,101099.61
2018-11-26T04:42:12.768Z,101103.11
2018-11-26T04:44:40.915Z,101106.59
2018-11-26T04:47:09.001Z,101099.35
2018-11-26T04:49:37.168Z,101102.67
2018-11-26T04:52:05.576Z,101105.20
2018-11-26T04:54:33.664Z,101107.84
2018-11-26T04:57:01.774Z,101112.29
2018-11-26T04:59:29.889Z,101107.61
2018-11-26T05:01:57.972Z,101118.40
2018-11-26T05:04:26.115Z,101110.59
2018-11-26T05:06:54.202Z,101103.36
2018-11-26T05:09:22.308Z,101108.97
2018-11-26T05:11:50.393Z,101111.97
2018-11-26T05:14:18.566Z,101114.13
2018-11-26T05:16:46.682Z,101116.38
2018-11-26T05:19:14.786Z,101118.25
2018-11-26T05:21:42.881Z,101112.79
2018-11-26T05:24:11.000Z,101112.38
2018-11-26T05:26:39.084Z,101116.64
2018-11-26T05:29:07.173Z,101110.19
2018-11-26T05:31:35.280Z,101111.81
2018-11-26T05:34:03.372Z,101115.85
2018-11-26T05:36:31.566Z,101122.01
2018-11-26T05:38:59.654Z,101130.28
2018-11-26T05:41:27.790Z,101132.02
2018-11-26T05:43:56.107Z,101136.30
2018-11-26T05:46:24.281Z,101142.77
2018-11-26T05:48:52.416Z,101141.01
2018-11-26T05:51:20.512Z,101135.44
2018-11-26T05:53:48.610Z,101139.75
2018-11-26T05:56:16.770Z,101144.03
2018-11-26T05:58:44.882Z,101141.48
2018-11-26T06:01:12.986Z,101142.77
2018-11-26T06:03:41.917Z,101145.87
2018-11-26T06:06:10.073Z,101149.39
2018-11-26T06:08:38.157Z,101146.43
2018-11-26T06:11:06.257Z,101151.58
2018-11-26T06:13:34.358Z,101158.11
2018-11-26T06:16:02.497Z,101152.25
2018-11-26T06:18:30.611Z,101154.88
2018-11-26T06:20:58.690Z,101153.27
2018-11-26T06:23:26.834Z,101153.62
2018-11-26T06:25:54.904Z,101159.17
2018-11-26T06:28:23.047Z,101154.02
2018-11-26T06:30:51.129Z,101161.27
2018-11-26T06:33:19.242Z,101157.84
2018-11-26T06:35:47.338Z,101155.69
2018-11-26T06:38:15.434Z,101158.31
2018-11-26T06:40:43.517Z,101159.17
2018-11-26T06:43:11.614Z,101157.02
2018-11-26T06:45:39.734Z,101160.41
2018-11-26T06:48:07.840Z,101162.92
2018-11-26T06:50:35.933Z,101158.63
2018-11-26T06:53:04.072Z,101156.47
2018-11-26T06:55:32.188Z,101156.98
2018-11-26T06:58:00.270Z,101151.02
2018-11-26T07:00:28.369Z,101159.59
2018-11-26T07:02:56.490Z,101160.14
2018-11-26T07:05:24.607Z,101158.38
2018-11-26T07:07:52.773Z,101166.09
2018-11-26T07:10:21.714Z,101165.66
2018-11-26T07:12:49.858Z,101168.28
2018-11-26T07:15:20.691Z,101166.94
2018-11-26T07:17:49.589Z,101173.75
2018-11-26T07:20:18.695Z,101175.50
2018-11-26T07:22:46.789Z,101173.91
2018-11-26T07:25:15.970Z,101170.90
2018-11-26T07:27:45.282Z,101176.50
2018-11-26T07:30:16.485Z,101172.19
2018-11-26T07:32:44.729Z,101175.16
2018-11-26T07:35:13.394Z,101174.25
2018-11-26T07:37:41.611Z,101167.43
2018-11-26T07:40:12.632Z,101171.74
2018-11-26T07:42:43.164Z,101170.50
2018-11-26T07:45:12.507Z,101172.22
2018-11-26T07:47:41.340Z,101173.93
2018-11-26T07:50:11.997Z,101177.77
2018-11-26T07:52:40.118Z,101174.22
2018-11-26T07:55:10.126Z,101176.33
2018-11-26T07:57:38.958Z,101173.70
2018-11-26T08:00:17.280Z,101172.33
2018-11-26T08:02:45.623Z,101178.31
2018-11-26T08:05:14.813Z,101173.57
2018-11-26T08:07:42.949Z,101174.75
2018-11-26T08:10:12.247Z,101178.16
2018-11-26T08:12:40.491Z,101180.25
2018-11-26T08:15:10.782Z,101175.09
2018-11-26T08:17:38.878Z,101181.44
2018-11-26T08:20:07.987Z,101183.97
2018-11-26T08:22:36.130Z,101190.79
2018-11-26T08:25:05.121Z,101192.95
2018-11-26T08:27:33.240Z,101190.73
2018-11-26T08:30:01.355Z,101186.81
2018-11-26T08:32:34.000Z,101190.23
2018-11-26T08:34:57.598Z,101188.00
2018-11-26T08:37:31.207Z,101200.82
2018-11-26T08:40:04.681Z,101208.14
2018-11-26T08:43:06.871Z,101200.91
2018-11-26T08:45:36.894Z,101204.82
2018-11-26T08:48:10.314Z,101206.94
2018-11-26T08:50:38.841Z,101211.19
2018-11-26T08:53:06.935Z,101212.09
2018-11-26T08:55:34.985Z,101209.87
2018-11-26T08:58:03.102Z,101212.80
2018-11-26T09:00:31.204Z,101215.95
2018-11-26T09:03:03.288Z,101211.72
2018-11-26T09:05:36.896Z,101223.16
2018-11-26T09:08:05.016Z,101214.57
2018-11-26T09:10:33.106Z,101213.48
2018-11-26T09:13:01.213Z,101210.00
2018-11-26T09:15:29.377Z,101214.20
2018-11-26T09:17:57.515Z,101214.16
2018-11-26T09:20:25.614Z,101208.36
2018-11-26T09:22:53.721Z,101211.34
2018-11-26T09:25:21.832Z,101209.21
2018-11-26T09:27:49.949Z,101211.20
2018-11-26T09:30:18.047Z,101204.62
2018-11-26T09:32:46.147Z,101211.39
2018-11-26T09:35:15.554Z,101207.75
2018-11-26T09:37:43.646Z,101200.76
2018-11-26T09:40:16.017Z,101203.33
2018-11-26T09:42:45.046Z,101202.71
2018-11-26T09:45:17.267Z,101201.33
2018-11-26T09:47:45.542Z,101205.56
2018-11-26T09:50:16.010Z,101205.67
2018-11-26T09:52:44.118Z,101205.03
2018-11-26T09:55:12.953Z,101203.97
2018-11-26T09:57:41.171Z,101204.44
2018-11-26T10:00:17.061Z,101200.20
2018-11-26T10:02:46.319Z,101199.73
2018-11-26T10:05:15.824Z,101198.73
2018-11-26T10:07:43.942Z,101196.14
2018-11-26T10:10:12.683Z,101191.63
2018-11-26T10:12:41.430Z,101194.84
2018-11-26T10:15:14.659Z,101191.72
2018-11-26T10:17:42.788Z,101189.48
2018-11-26T10:20:11.417Z,101193.16
2018-11-26T10:22:39.622Z,101195.84
2018-11-26T10:25:11.869Z,101188.50
2018-11-26T10:27:40.134Z,101188.50
2018-11-26T10:30:10.582Z,101184.92
2018-11-26T10:32:39.042Z,101187.18
2018-11-26T10:35:08.679Z,101183.30
2018-11-26T10:37:36.865Z,101182.25
2018-11-26T10:40:11.816Z,101182.99
2018-11-26T10:42:39.909Z,101181.09
2018-11-26T10:45:10.505Z,101179.91
2018-11-26T10:47:38.609Z,101172.36
2018-11-26T10:50:10.562Z,101176.06
2018-11-26T10:52:38.671Z,101173.83
2018-11-26T10:55:23.898Z,101172.53
2018-11-26T10:57:52.550Z,101165.30
2018-11-26T11:00:26.071Z,101164.86
2018-11-26T11:02:54.170Z,101166.79
2018-11-26T11:05:22.267Z,101168.17
2018-11-26T11:07:50.367Z,101165.50
2018-11-26T11:10:34.141Z,101165.12
2018-11-26T11:13:02.261Z,101163.67
2018-11-26T11:15:30.334Z,101168.06
2018-11-26T11:17:58.408Z,101165.85
2018-11-26T11:20:27.795Z,101169.22
2018-11-26T11:22:55.906Z,101170.95
2018-11-26T11:25:24.310Z,101167.92
2018-11-26T11:27:52.652Z,101167.58
2018-11-26T11:30:25.642Z,101165.23
2018-11-26T11:32:53.753Z,101168.15
2018-11-26T11:35:21.879Z,101168.77
2018-11-26T11:37:50.783Z,101169.52
2018-11-26T11:40:19.779Z,101169.93
2018-11-26T11:42:48.088Z,101164.08
2018-11-26T11:45:16.240Z,101164.65
2018-11-26T11:47:44.405Z,101157.91
2018-11-26T11:50:13.361Z,101164.69
2018-11-26T11:52:41.499Z,101164.24
2018-11-26T11:55:25.737Z,101165.77
2018-11-26T11:57:53.891Z,101160.12
2018-11-26T12:00:30.914Z,101170.13
2018-11-26T12:02:59.721Z,101158.26
2018-11-26T12:05:27.870Z,101157.95
2018-11-26T12:07:55.952Z,101160.41
2018-11-26T12:10:24.035Z,101156.85
2018-11-26T12:12:52.127Z,101163.14
2018-11-26T12:15:20.423Z,101155.77
2018-11-26T12:17:49.306Z,101163.59
2018-11-26T12:20:17.423Z,101161.77
2018-11-26T12:22:45.775Z,101159.80
2018-11-26T12:25:16.996Z,101153.00
2018-11-26T12:27:45.113Z,101160.41
2018-11-26T12:30:19.336Z,101154.92
2018-11-26T12:32:47.435Z,101154.41
2018-11-26T12:35:15.599Z,101162.41
2018-11-26T12:37:43.707Z,101157.94
2018-11-26T12:40:14.047Z,101160.97
2018-11-26T12:42:42.175Z,101163.30
2018-11-26T12:45:27.412Z,101164.67
2018-11-26T12:47:55.505Z,101161.70
2018-11-26T12:50:23.681Z,101157.83
2018-11-26T12:55:26.601Z,101165.43
2018-11-26T12:57:55.563Z,101164.34
2018-11-26T13:00:25.657Z,101165.84
2018-11-26T13:02:54.930Z,101165.74
2018-11-26T13:05:23.182Z,101169.87
2018-11-26T13:07:51.344Z,101173.82
2018-11-26T13:10:20.893Z,101172.86
2018-11-26T13:12:49.671Z,101171.61
2018-11-26T13:15:18.814Z,101179.37
2018-11-26T13:17:46.955Z,101179.47
2018-11-26T13:20:18.086Z,101175.08
2018-11-26T13:22:46.187Z,101179.69
2018-11-26T13:25:16.505Z,101181.25
2018-11-26T13:27:46.227Z,101178.18
2018-11-26T13:30:16.647Z,101172.73
2018-11-26T13:32:46.178Z,101170.58
2018-11-26T13:35:15.053Z,101172.73
2018-11-26T13:37:43.131Z,101182.37
2018-11-26T13:40:15.291Z,101173.55
2018-11-26T13:42:43.475Z,101172.92
2018-11-26T13:45:17.851Z,101181.09
2018-11-26T13:47:46.004Z,101180.69
2018-11-26T13:50:18.139Z,101180.66
2018-11-26T13:52:46.251Z,101182.55
2018-11-26T13:55:14.354Z,101177.91
2018-11-26T13:57:42.440Z,101180.13
2018-11-26T14:00:13.648Z,101180.31
2018-11-26T14:02:41.827Z,101173.02
2018-11-26T14:05:11.103Z,101169.29
2018-11-26T14:07:39.251Z,101176.23
2018-11-26T14:10:12.958Z,101171.65
2018-11-26T14:12:42.328Z,101179.62
2018-11-26T14:15:12.237Z,101176.91
2018-11-26T14:17:40.403Z,101181.36
2018-11-26T14:20:11.760Z,101184.38
2018-11-26T14:22:39.943Z,101190.17
2018-11-26T14:25:10.451Z,101192.10
2018-11-26T14:27:38.567Z,101197.47
2018-11-26T14:30:09.696Z,101197.94
2018-11-26T14:32:37.797Z,101197.95
2018-11-26T14:35:07.155Z,101197.25
2018-11-26T14:37:35.248Z,101196.03
2018-11-26T14:40:03.332Z,101196.84
2018-11-26T14:42:31.413Z,101197.45
2018-11-26T14:44:59.508Z,101197.41
2018-11-26T14:47:27.612Z,101204.64
2018-11-26T14:49:56.540Z,101207.06
2018-11-26T14:52:24.696Z,101202.81
2018-11-26T14:54:52.851Z,101202.89
2018-11-26T14:57:20.927Z,101213.91
2018-11-26T14:59:49.011Z,101209.33
2018-11-26T15:02:17.085Z,101211.53
2018-11-26T15:04:45.215Z,101209.11
2018-11-26T15:07:13.330Z,101211.78
2018-11-26T15:09:41.482Z,101213.69
2018-11-26T15:12:09.596Z,101218.45
2018-11-26T15:14:37.724Z,101223.27
2018-11-26T15:17:05.825Z,101227.20
2018-11-26T15:19:33.948Z,101227.70
2018-11-26T15:22:02.043Z,101225.66
2018-11-26T15:24:30.157Z,101226.99
2018-11-26T15:26:58.252Z,101229.22
2018-11-26T15:29:26.323Z,101231.86
2018-11-26T15:34:18.907Z,101234.45
2018-11-26T15:36:47.071Z,101237.05
2018-11-26T15:39:15.190Z,101232.73
2018-11-26T15:41:43.337Z,101240.87
2018-11-26T15:44:11.475Z,101238.70
2018-11-26T15:46:39.583Z,101238.69
2018-11-26T15:49:07.679Z,101238.70
2018-11-26T15:51:35.783Z,101245.97
2018-11-26T15:54:03.872Z,101250.26
2018-11-26T15:56:31.959Z,101247.95
2018-11-26T15:59:00.086Z,101252.41
2018-11-26T16:01:28.192Z,101246.07
2018-11-26T16:03:56.300Z,101245.72
2018-11-26T16:06:24.432Z,101251.74
2018-11-26T16:08:52.528Z,101254.33
2018-11-26T16:11:20.608Z,101254.34
2018-11-26T16:13:48.721Z,101249.68
2018-11-26T16:16:17.449Z,101252.15
2018-11-26T16:18:52.159Z,101247.31
2018-11-26T16:21:23.072Z,101255.44
2018-11-26T16:23:51.387Z,101251.13
2018-11-26T16:26:19.476Z,101249.44
2018-11-26T16:28:47.603Z,101261.91
2018-11-26T16:31:15.723Z,101252.09
2018-11-26T16:33:43.812Z,101259.81
2018-11-26T16:36:11.995Z,101258.98
2018-11-26T16:38:40.082Z,101261.63
2018-11-26T16:41:08.139Z,101266.33
2018-11-26T16:43:36.256Z,101265.88
2018-11-26T16:46:04.444Z,101267.98
2018-11-26T16:48:32.545Z,101272.17
2018-11-26T16:51:00.648Z,101273.42
2018-11-26T16:53:28.781Z,101275.98
2018-11-26T16:55:56.915Z,101280.65
2018-11-26T16:58:25.064Z,101278.13
2018-11-26T17:00:53.170Z,101280.30
2018-11-26T17:03:21.417Z,101279.00
2018-11-26T17:05:49.531Z,101284.58
2018-11-26T17:08:17.652Z,101287.14
2018-11-26T17:10:45.733Z,101291.42
2018-11-26T17:13:14.524Z,101290.56
2018-11-26T17:15:42.739Z,101292.63
2018-11-26T17:18:10.865Z,101291.77
2018-11-26T17:20:39.010Z,101299.98
2018-11-26T17:23:07.810Z,101302.08
2018-11-26T17:25:36.050Z,101296.48
2018-11-26T17:28:04.298Z,101302.91
2018-11-26T17:30:32.476Z,101303.78
2018-11-26T17:33:02.279Z,101310.55
2018-11-26T17:35:31.003Z,101311.79
2018-11-26T17:37:59.270Z,101310.42
2018-11-26T17:40:27.660Z,101315.58
2018-11-26T17:42:56.179Z,101313.84
2018-11-26T17:45:25.127Z,101312.25
2018-11-26T17:47:58.491Z,101312.24
2018-11-26T17:50:35.193Z,101312.35
2018-11-26T17:53:03.403Z,101315.48
2018-11-26T17:55:31.559Z,101313.81
2018-11-26T17:57:59.748Z,101317.26
2018-11-26T18:00:30.236Z,101316.72
2018-11-26T18:02:58.392Z,101319.84
2018-11-26T18:05:27.954Z,101319.08
2018-11-26T18:07:58.916Z,101311.38
2018-11-26T18:10:27.075Z,101320.86
2018-11-26T18:12:55.264Z,101320.48
2018-11-26T18:15:23.565Z,101325.16
2018-11-26T18:17:51.755Z,101327.70
2018-11-26T18:20:20.992Z,101330.72
2018-11-26T18:22:50.642Z,101335.41
2018-11-26T18:25:19.386Z,101338.74
2018-11-26T18:27:59.502Z,101346.84
2018-11-26T18:30:35.179Z,101345.98
2018-11-26T18:33:03.325Z,101348.05
2018-11-26T18:35:31.455Z,101346.70
2018-11-26T18:37:59.613Z,101350.45
2018-11-26T18:40:27.715Z,101349.19
2018-11-26T18:42:55.821Z,101347.86
2018-11-26T18:45:23.964Z,101351.71
2018-11-26T18:47:52.126Z,101342.25
2018-11-26T18:50:21.388Z,101350.74
2018-11-26T18:52:50.685Z,101363.69
2018-11-26T18:55:19.069Z,101355.16
2018-11-26T18:57:47.222Z,101361.97
2018-11-26T19:00:25.483Z,101360.28
2018-11-26T19:02:54.323Z,101367.57
2018-11-26T19:05:22.552Z,101372.20
2018-11-26T19:07:51.069Z,101372.20
2018-11-26T19:10:27.021Z,101363.20
2018-11-26T19:13:04.717Z,101370.50
2018-11-26T19:15:34.555Z,101374.77
2018-11-26T19:18:08.548Z,101368.27
2018-11-26T19:20:36.667Z,101374.77
2018-11-26T19:23:05.023Z,101379.08
2018-11-26T19:25:33.118Z,101373.47
2018-11-26T19:28:01.235Z,101380.32
2018-11-26T19:30:29.337Z,101378.05
2018-11-26T19:32:57.429Z,101376.27
2018-11-26T19:35:25.567Z,101376.23
2018-11-26T19:37:53.670Z,101377.97
2018-11-26T19:40:21.781Z,101371.16
2018-11-26T19:42:49.902Z,101375.59
2018-11-26T19:45:19.338Z,101373.05
2018-11-26T19:47:47.521Z,101374.78
2018-11-26T19:50:16.636Z,101376.19
2018-11-26T19:52:45.538Z,101379.26
2018-11-26T19:55:16.059Z,101372.08
2018-11-26T19:57:44.167Z,101382.41
2018-11-26T20:00:17.731Z,101374.38
2018-11-26T20:02:47.528Z,101382.61
2018-11-26T20:05:36.112Z,101379.64
2018-11-26T20:08:04.236Z,101394.68
2018-11-26T20:10:32.400Z,101387.45
2018-11-26T20:13:00.582Z,101386.61
2018-11-26T20:15:28.692Z,101379.77
2018-11-26T20:17:59.102Z,101385.83
2018-11-26T20:20:24.905Z,101390.92
2018-11-26T20:22:53.801Z,101400.37
2018-11-26T20:25:21.180Z,101400.84
2018-11-26T20:27:49.287Z,101394.41
2018-11-26T20:30:17.502Z,101403.42
2018-11-26T20:32:47.130Z,101409.45
2018-11-26T20:35:15.362Z,101413.31
2018-11-26T20:37:43.536Z,101411.64
2018-11-26T20:40:13.071Z,101420.61
2018-11-26T20:42:47.172Z,101424.05
2018-11-26T20:45:16.307Z,101430.05
2018-11-26T20:47:45.373Z,101424.47
2018-11-26T20:50:18.275Z,101424.95
2018-11-26T20:52:46.387Z,101431.38
2018-11-26T20:55:16.993Z,101429.66
2018-11-26T20:57:45.135Z,101434.38
2018-11-26T21:00:16.537Z,101433.97
2018-11-26T21:02:45.212Z,101433.14
2018-11-26T21:05:13.375Z,101431.47
2018-11-26T21:07:41.530Z,101441.29
2018-11-26T21:10:11.786Z,101436.61
2018-11-26T21:12:39.947Z,101440.46
2018-11-26T21:15:14.482Z,101443.03
2018-11-26T21:17:43.897Z,101449.03
2018-11-26T21:20:13.904Z,101450.75
2018-11-26T21:22:42.024Z,101454.18
2018-11-26T21:25:12.108Z,101461.45
2018-11-26T21:27:40.224Z,101458.05
2018-11-26T21:30:14.494Z,101455.05
2018-11-26T21:32:42.595Z,101461.03
2018-11-26T21:35:11.695Z,101461.45
2018-11-26T21:37:40.786Z,101462.77
2018-11-26T21:40:10.113Z,101465.74
2018-11-26T21:42:38.204Z,101462.75
2018-11-26T21:45:09.631Z,101466.20
2018-11-26T21:47:37.759Z,101470.48
2018-11-26T21:50:10.280Z,101468.73
2018-11-26T21:52:38.404Z,101471.73
2018-11-26T21:55:08.888Z,101473.87
2018-11-26T21:57:37.051Z,101482.02
2018-11-26T22:00:14.146Z,101478.17
2018-11-26T22:02:42.255Z,101475.61
2018-11-26T22:05:10.712Z,101478.16
2018-11-26T22:07:38.824Z,101482.02
2018-11-26T22:10:09.648Z,101481.59
2018-11-26T22:12:37.756Z,101485.89
2018-11-26T22:15:09.359Z,101491.03
2018-11-26T22:17:38.052Z,101486.71
2018-11-26T22:20:11.183Z,101489.72
2018-11-26T22:22:39.288Z,101489.30
2018-11-26T22:25:08.763Z,101492.30
2018-11-26T22:27:36.895Z,101487.56
2018-11-26T22:30:10.302Z,101497.84
2018-11-26T22:32:38.403Z,101490.09
2018-11-26T22:35:06.987Z,101490.90
2018-11-26T22:37:35.079Z,101487.05
2018-11-26T22:40:03.211Z,101488.75
2018-11-26T22:42:31.344Z,101488.34
2018-11-26T22:44:59.477Z,101492.64
2018-11-26T22:47:27.587Z,101493.93
2018-11-26T22:49:55.679Z,101492.20
2018-11-26T22:52:23.783Z,101489.21
2018-11-26T22:54:51.859Z,101493.50
2018-11-26T22:57:19.971Z,101492.19
2018-11-26T22:59:48.071Z,101494.34
2018-11-26T23:02:16.203Z,101493.03
2018-11-26T23:04:44.291Z,101494.79
2018-11-26T23:07:12.485Z,101496.49
2018-11-26T23:09:40.567Z,101499.05
2018-11-26T23:12:08.678Z,101502.94
2018-11-26T23:14:36.811Z,101513.63
2018-11-26T23:17:04.983Z,101504.65
2018-11-26T23:19:33.103Z,101503.83
2018-11-26T23:22:01.185Z,101505.97
2018-11-26T23:24:29.290Z,101515.80
2018-11-26T23:26:57.407Z,101508.97
2018-11-26T23:29:25.498Z,101512.80
2018-11-26T23:31:53.615Z,101517.94
2018-11-26T23:34:21.716Z,101520.97
2018-11-26T23:36:49.833Z,101524.78
2018-11-26T23:39:17.959Z,101519.63
2018-11-26T23:41:46.087Z,101520.52
2018-11-26T23:44:14.202Z,101524.34
2018-11-26T23:46:42.319Z,101526.46
2018-11-26T23:49:10.415Z,101522.20
2018-11-26T23:51:38.523Z,101522.22
2018-11-26T23:54:06.636Z,101520.91
2018-11-26T23:56:34.763Z,101512.77
2018-11-26T23:59:02.887Z,101519.19
